createdAt,value
2023-01-29T00:01:59.950Z,99810.69
2023-01-29T00:04:27.105Z,99799.66
2023-01-29T00:06:53.965Z,99800.03
2023-01-29T00:09:21.016Z,99817.78
2023-01-29T00:11:47.998Z,99811.50
2023-01-29T00:14:14.928Z,99809.28
2023-01-29T00:16:42.177Z,99810.03
2023-01-29T00:19:09.251Z,99827.00
2023-01-29T00:21:36.196Z,99821.66
2023-01-29T00:24:03.289Z,99831.00
2023-01-29T00:26:30.715Z,99827.38
2023-01-29T00:29:02.433Z,99828.44
2023-01-29T00:31:30.295Z,99832.69
2023-01-29T00:33:57.860Z,99831.06
2023-01-29T00:36:26.290Z,99834.88
2023-01-29T00:39:02.984Z,99834.25
2023-01-29T00:41:50.525Z,99837.28
2023-01-29T00:44:36.524Z,99836.94
2023-01-29T00:47:04.047Z,99835.50
2023-01-29T00:49:38.483Z,99831.72
2023-01-29T00:52:24.069Z,99826.94
2023-01-29T00:54:51.902Z,99835.50
2023-01-29T00:57:18.843Z,99825.88
2023-01-29T00:59:45.701Z,99832.22
2023-01-29T01:02:31.612Z,99830.31
2023-01-29T01:04:58.450Z,99830.94
2023-01-29T01:07:25.348Z,99827.47
2023-01-29T01:10:10.749Z,99828.28
2023-01-29T01:12:37.766Z,99826.59
2023-01-29T01:15:05.163Z,99828.97
2023-01-29T01:17:32.248Z,99826.25
2023-01-29T01:19:59.051Z,99835.25
2023-01-29T01:22:26.151Z,99836.59
2023-01-29T01:24:52.972Z,99838.63
2023-01-29T01:27:19.797Z,99838.84
2023-01-29T01:29:47.172Z,99837.63
2023-01-29T01:32:14.370Z,99836.94
2023-01-29T01:34:41.248Z,99852.38
2023-01-29T01:37:08.152Z,99849.63
2023-01-29T01:39:35.092Z,99849.19
2023-01-29T01:42:02.030Z,99854.03
2023-01-29T01:45:08.266Z,99856.72
2023-01-29T01:47:54.718Z,99848.69
2023-01-29T01:50:40.288Z,99852.03
2023-01-29T01:53:13.184Z,99852.72
2023-01-29T01:55:56.101Z,99852.13
2023-01-29T01:58:36.602Z,99849.22
2023-01-29T02:04:13.773Z,99846.09
2023-01-29T02:07:00.283Z,99848.06
2023-01-29T02:09:36.040Z,99849.03
2023-01-29T02:12:05.995Z,99847.06
2023-01-29T02:14:34.951Z,99853.72
2023-01-29T02:17:02.293Z,99840.81
2023-01-29T02:19:58.244Z,99856.06
2023-01-29T02:22:28.488Z,99857.19
2023-01-29T02:25:16.583Z,99852.19
2023-01-29T02:27:59.397Z,99860.28
2023-01-29T02:30:40.500Z,99855.81
2023-01-29T02:33:23.414Z,99862.94
2023-01-29T02:35:54.868Z,99863.22
2023-01-29T02:38:36.896Z,99867.38
2023-01-29T02:41:32.105Z,99875.53
2023-01-29T02:44:08.055Z,99863.22
2023-01-29T02:46:43.765Z,99874.38
2023-01-29T02:49:58.295Z,99870.84
2023-01-29T02:52:51.154Z,99870.31
2023-01-29T02:55:44.338Z,99868.19
2023-01-29T02:58:18.354Z,99876.16
2023-01-29T03:00:48.047Z,99876.59
2023-01-29T03:03:18.035Z,99861.22
2023-01-29T03:06:09.915Z,99866.06
2023-01-29T03:08:45.732Z,99869.03
2023-01-29T03:11:15.268Z,99854.84
2023-01-29T03:14:00.278Z,99868.53
2023-01-29T03:16:35.671Z,99864.75
2023-01-29T03:19:09.477Z,99878.72
2023-01-29T03:21:59.790Z,99873.22
2023-01-29T03:25:01.156Z,99875.00
2023-01-29T03:27:51.985Z,99882.66
2023-01-29T03:30:39.355Z,99891.84
2023-01-29T03:33:09.534Z,99887.09
2023-01-29T03:35:43.544Z,99885.31
2023-01-29T03:38:12.563Z,99892.47
2023-01-29T03:40:53.834Z,99884.44
2023-01-29T03:43:44.113Z,99881.94
2023-01-29T03:46:36.588Z,99885.56
2023-01-29T03:49:29.755Z,99890.78
2023-01-29T03:52:18.275Z,99890.00
2023-01-29T03:55:07.081Z,99884.34
2023-01-29T03:57:41.387Z,99892.13
2023-01-29T04:00:19.034Z,99893.78
2023-01-29T04:03:15.344Z,99892.88
2023-01-29T04:05:53.114Z,99890.16
2023-01-29T04:08:36.403Z,99888.88
2023-01-29T04:11:12.313Z,99890.31
2023-01-29T04:13:40.184Z,99888.81
2023-01-29T04:16:11.200Z,99877.25
2023-01-29T04:18:38.520Z,99893.72
2023-01-29T04:21:07.463Z,99884.41
2023-01-29T04:23:34.785Z,99887.97
2023-01-29T04:26:27.816Z,99898.03
2023-01-29T04:29:06.369Z,99893.94
2023-01-29T04:31:37.871Z,99897.66
2023-01-29T04:34:26.804Z,99901.72
2023-01-29T04:37:10.448Z,99895.38
2023-01-29T04:39:59.286Z,99906.16
2023-01-29T04:42:41.982Z,99904.97
2023-01-29T04:45:34.225Z,99915.50
2023-01-29T04:48:16.106Z,99914.84
2023-01-29T04:51:19.417Z,99918.75
2023-01-29T04:54:12.424Z,99931.66
2023-01-29T04:56:44.804Z,99917.09
2023-01-29T04:59:23.865Z,99913.22
2023-01-29T05:01:50.985Z,99909.75
2023-01-29T05:04:21.039Z,99909.75
2023-01-29T05:06:51.457Z,99913.28
2023-01-29T05:09:20.107Z,99910.56
2023-01-29T05:11:49.035Z,99914.00
2023-01-29T05:14:19.324Z,99912.22
2023-01-29T05:16:51.836Z,99917.28
2023-01-29T05:19:18.832Z,99907.91
2023-01-29T05:21:48.944Z,99905.34
2023-01-29T05:24:19.694Z,99902.63
2023-01-29T05:27:07.763Z,99906.75
2023-01-29T05:29:35.021Z,99922.03
2023-01-29T05:32:02.136Z,99918.66
2023-01-29T05:34:29.018Z,99923.19
2023-01-29T05:36:56.173Z,99927.50
2023-01-29T05:39:23.099Z,99919.09
2023-01-29T05:41:50.066Z,99921.59
2023-01-29T05:44:17.329Z,99918.78
2023-01-29T05:46:44.827Z,99918.34
2023-01-29T05:49:12.096Z,99927.06
2023-01-29T05:51:39.026Z,99931.03
2023-01-29T05:54:05.895Z,99941.19
2023-01-29T05:56:32.814Z,99929.34
2023-01-29T05:58:59.835Z,99929.69
2023-01-29T06:01:26.978Z,99938.53
2023-01-29T06:03:53.856Z,99935.38
2023-01-29T06:06:20.797Z,99939.50
2023-01-29T06:08:48.097Z,99938.78
2023-01-29T06:11:18.455Z,99944.88
2023-01-29T06:13:46.021Z,99948.84
2023-01-29T06:16:14.389Z,99958.16
2023-01-29T06:18:42.542Z,99955.59
2023-01-29T06:21:13.720Z,99970.38
2023-01-29T06:23:41.317Z,99973.94
2023-01-29T06:26:12.124Z,99972.00
2023-01-29T06:28:39.274Z,99976.38
2023-01-29T06:31:26.592Z,99979.13
2023-01-29T06:33:54.318Z,99967.06
2023-01-29T06:36:21.286Z,99969.34
2023-01-29T06:38:48.282Z,99978.94
2023-01-29T06:41:18.274Z,99979.31
2023-01-29T06:43:46.060Z,99980.28
2023-01-29T06:46:12.969Z,99994.97
2023-01-29T06:48:40.058Z,99990.63
2023-01-29T06:51:08.896Z,99996.09
2023-01-29T06:53:37.443Z,99994.34
2023-01-29T06:56:05.668Z,99991.13
2023-01-29T06:58:32.606Z,99998.03
2023-01-29T07:01:06.612Z,100000.16
2023-01-29T07:03:33.675Z,100004.56
2023-01-29T07:06:03.426Z,99996.88
2023-01-29T07:08:30.518Z,100002.81
2023-01-29T07:11:01.524Z,100003.16
2023-01-29T07:13:30.807Z,100011.91
2023-01-29T07:16:07.483Z,100006.78
2023-01-29T07:18:34.549Z,99998.84
2023-01-29T07:21:06.582Z,100010.22
2023-01-29T07:23:35.005Z,100005.25
2023-01-29T07:26:06.338Z,100009.34
2023-01-29T07:28:37.747Z,100018.69
2023-01-29T07:31:06.088Z,100014.72
2023-01-29T07:33:33.841Z,100010.75
2023-01-29T07:36:02.438Z,100018.97
2023-01-29T07:38:29.337Z,100011.34
2023-01-29T07:40:56.256Z,100013.31
2023-01-29T07:43:25.515Z,100012.34
2023-01-29T07:45:52.562Z,100007.13
2023-01-29T07:48:19.739Z,100004.22
2023-01-29T07:50:55.432Z,100021.78
2023-01-29T07:53:22.702Z,100013.16
2023-01-29T07:55:49.539Z,100015.72
2023-01-29T07:58:16.374Z,100016.84
2023-01-29T08:00:44.244Z,100013.91
2023-01-29T08:03:16.926Z,100011.91
2023-01-29T08:05:45.534Z,100024.94
2023-01-29T08:08:13.508Z,100009.69
2023-01-29T08:10:41.047Z,100018.50
2023-01-29T08:13:08.542Z,100023.97
2023-01-29T08:15:39.226Z,100025.84
2023-01-29T08:18:08.428Z,100025.31
2023-01-29T08:20:35.230Z,100030.44
2023-01-29T08:23:07.631Z,100027.72
2023-01-29T08:25:35.972Z,100029.81
2023-01-29T08:28:02.913Z,100035.72
2023-01-29T08:30:31.867Z,100042.00
2023-01-29T08:32:59.287Z,100031.41
2023-01-29T08:35:26.795Z,100045.88
2023-01-29T08:38:01.650Z,100053.66
2023-01-29T08:40:32.306Z,100047.22
2023-01-29T08:43:02.198Z,100054.63
2023-01-29T08:45:30.974Z,100055.88
2023-01-29T08:47:57.983Z,100059.84
2023-01-29T08:50:24.935Z,100063.75
2023-01-29T08:52:51.926Z,100065.88
2023-01-29T08:55:19.133Z,100064.25
2023-01-29T08:57:46.421Z,100063.38
2023-01-29T09:00:14.794Z,100067.72
2023-01-29T09:02:42.339Z,100063.38
2023-01-29T09:05:10.058Z,100060.56
2023-01-29T09:07:37.375Z,100072.31
2023-01-29T09:10:23.098Z,100078.06
2023-01-29T09:12:50.092Z,100079.63
2023-01-29T09:15:17.543Z,100064.34
2023-01-29T09:17:44.606Z,100068.44
2023-01-29T09:20:12.322Z,100071.06
2023-01-29T09:22:39.208Z,100060.31
2023-01-29T09:25:06.787Z,100070.00
2023-01-29T09:27:34.169Z,100068.88
2023-01-29T09:30:01.018Z,100059.75
2023-01-29T09:32:52.665Z,100064.13
2023-01-29T09:35:17.895Z,100058.00
2023-01-29T09:37:48.375Z,100056.31
2023-01-29T09:40:35.495Z,100060.41
2023-01-29T09:43:15.796Z,100061.19
2023-01-29T09:46:06.558Z,100055.22
2023-01-29T09:48:36.645Z,100060.13
2023-01-29T09:51:14.025Z,100057.19
2023-01-29T09:53:47.741Z,100058.97
2023-01-29T09:56:20.306Z,100061.56
2023-01-29T09:58:47.722Z,100055.44
2023-01-29T10:01:37.976Z,100049.34
2023-01-29T10:04:21.451Z,100053.72
2023-01-29T10:06:48.487Z,100052.25
2023-01-29T10:09:39.432Z,100053.31
2023-01-29T10:12:37.331Z,100048.00
2023-01-29T10:15:28.789Z,100050.50
2023-01-29T10:18:03.779Z,100043.66
2023-01-29T10:20:49.053Z,100047.44
2023-01-29T10:23:25.279Z,100042.59
2023-01-29T10:25:53.748Z,100036.38
2023-01-29T10:28:46.391Z,100038.78
2023-01-29T10:31:39.131Z,100034.63
2023-01-29T10:34:34.739Z,100030.41
2023-01-29T10:37:07.105Z,100027.06
2023-01-29T10:39:34.526Z,100017.66
2023-01-29T10:42:41.197Z,100019.38
2023-01-29T10:45:33.859Z,100026.78
2023-01-29T10:48:06.976Z,100008.06
2023-01-29T10:50:50.930Z,100012.59
2023-01-29T10:53:30.007Z,100018.38
2023-01-29T10:56:29.434Z,100006.50
2023-01-29T10:59:06.011Z,100006.22
2023-01-29T11:01:32.813Z,100009.34
2023-01-29T11:04:04.698Z,100004.56
2023-01-29T11:06:37.094Z,100003.16
2023-01-29T11:09:13.968Z,100000.34
2023-01-29T11:11:52.211Z,99984.00
2023-01-29T11:14:27.220Z,99995.31
2023-01-29T11:16:54.385Z,99984.09
2023-01-29T11:19:41.585Z,99983.19
2023-01-29T11:22:16.815Z,99982.31
2023-01-29T11:24:44.187Z,99982.22
2023-01-29T11:27:30.049Z,99976.66
2023-01-29T11:29:57.476Z,99993.81
2023-01-29T11:32:24.532Z,99990.63
2023-01-29T11:35:16.776Z,99987.00
2023-01-29T11:37:46.624Z,99987.34
2023-01-29T11:40:19.375Z,99982.66
2023-01-29T11:42:50.130Z,99977.13
2023-01-29T11:45:23.223Z,99982.66
2023-01-29T11:47:53.324Z,99979.06
2023-01-29T11:50:24.628Z,99973.94
2023-01-29T11:52:52.030Z,99982.31
2023-01-29T11:55:49.909Z,99974.53
2023-01-29T12:00:55.755Z,99975.88
2023-01-29T12:03:43.976Z,99976.84
2023-01-29T12:06:31.808Z,99979.75
2023-01-29T12:09:01.935Z,99972.53
2023-01-29T12:11:30.028Z,99984.09
2023-01-29T12:14:05.173Z,99977.03
2023-01-29T12:17:03.765Z,99978.97
2023-01-29T12:19:50.997Z,99964.50
2023-01-29T12:22:22.559Z,99972.34
2023-01-29T12:24:55.472Z,99975.41
2023-01-29T12:27:32.771Z,99976.38
2023-01-29T12:30:12.027Z,99976.94
2023-01-29T12:32:55.819Z,99975.97
2023-01-29T12:35:31.815Z,99981.69
2023-01-29T12:38:10.577Z,99975.00
2023-01-29T12:40:44.701Z,99986.09
2023-01-29T12:43:28.947Z,99977.72
2023-01-29T12:45:58.574Z,99982.06
2023-01-29T12:48:34.111Z,99977.53
2023-01-29T12:51:24.758Z,99987.97
2023-01-29T12:54:00.043Z,99991.59
2023-01-29T12:56:37.162Z,99985.59
2023-01-29T12:59:21.766Z,99978.88
2023-01-29T13:01:54.937Z,99981.28
2023-01-29T13:04:42.803Z,99988.31
2023-01-29T13:07:15.163Z,99990.78
2023-01-29T13:09:45.933Z,99991.78
2023-01-29T13:12:18.939Z,99988.41
2023-01-29T13:14:57.728Z,99992.81
2023-01-29T13:17:33.285Z,99989.91
2023-01-29T13:20:17.063Z,99993.09
2023-01-29T13:22:46.001Z,99986.91
2023-01-29T13:25:19.338Z,99998.91
2023-01-29T13:27:48.385Z,99992.91
2023-01-29T13:30:44.917Z,99993.44
2023-01-29T13:33:24.193Z,99987.88
2023-01-29T13:36:18.409Z,99992.91
2023-01-29T13:38:45.423Z,99991.13
2023-01-29T13:41:13.552Z,99992.22
2023-01-29T13:46:25.296Z,99994.16
2023-01-29T13:48:55.823Z,100005.63
2023-01-29T13:51:28.080Z,99995.03
2023-01-29T13:54:04.117Z,100003.22
2023-01-29T13:56:33.729Z,100008.28
2023-01-29T13:59:03.495Z,100008.78
2023-01-29T14:01:48.928Z,100016.13
2023-01-29T14:04:32.566Z,100013.13
2023-01-29T14:07:00.667Z,100009.75
2023-01-29T14:09:42.854Z,100005.88
2023-01-29T14:12:21.994Z,100016.47
2023-01-29T14:14:49.272Z,100005.34
2023-01-29T14:17:19.057Z,100017.56
2023-01-29T14:19:55.653Z,100013.22
2023-01-29T14:22:32.647Z,100023.72
2023-01-29T14:25:03.641Z,100019.41
2023-01-29T14:27:31.561Z,100014.97
2023-01-29T14:30:01.786Z,100012.06
2023-01-29T14:32:29.696Z,100016.41
2023-01-29T14:35:03.390Z,100020.72
2023-01-29T14:37:34.612Z,100008.78
2023-01-29T14:43:02.914Z,100000.06
2023-01-29T14:48:11.128Z,100006.41
2023-01-29T15:05:49.754Z,100008.34
2023-01-29T15:08:40.845Z,100016.47
2023-01-29T15:11:32.895Z,100017.28
2023-01-29T15:14:36.610Z,100018.97
2023-01-29T15:50:46.062Z,100023.97
2023-01-29T16:04:11.693Z,100020.00
2023-01-29T16:06:41.101Z,100032.47
2023-01-29T16:09:09.008Z,100033.88
2023-01-29T16:11:36.408Z,100033.69
2023-01-29T16:14:04.097Z,100031.59
2023-01-29T16:16:31.213Z,100030.88
2023-01-29T16:19:00.844Z,100036.88
2023-01-29T16:21:36.525Z,100034.94
2023-01-29T16:24:14.109Z,100033.44
2023-01-29T16:26:47.613Z,100033.34
2023-01-29T16:29:30.388Z,100032.22
2023-01-29T16:32:02.221Z,100034.84
2023-01-29T16:34:41.427Z,100023.47
2023-01-29T16:37:26.500Z,100034.06
2023-01-29T16:39:53.463Z,100030.19
2023-01-29T16:42:23.359Z,100032.28
2023-01-29T16:45:28.143Z,100026.47
2023-01-29T16:51:11.070Z,100027.97
2023-01-29T16:53:38.280Z,100023.75
2023-01-29T16:56:08.289Z,100024.38
2023-01-29T16:58:36.752Z,100031.84
2023-01-29T17:01:09.228Z,100041.63
2023-01-29T17:03:37.562Z,100031.31
2023-01-29T17:06:14.916Z,100026.38
2023-01-29T17:08:49.513Z,100022.50
2023-01-29T17:11:28.904Z,100023.91
2023-01-29T17:13:57.346Z,100025.94
2023-01-29T17:16:31.647Z,100032.50
2023-01-29T17:18:59.677Z,100024.59
2023-01-29T17:21:26.964Z,100028.41
2023-01-29T17:23:54.060Z,100021.34
2023-01-29T17:26:21.507Z,100029.47
2023-01-29T17:28:51.524Z,100024.94
2023-01-29T17:31:18.459Z,100023.28
2023-01-29T17:33:46.064Z,100018.78
2023-01-29T17:36:15.837Z,100023.41
2023-01-29T17:38:43.116Z,100011.09
2023-01-29T17:41:23.050Z,100009.59
2023-01-29T17:43:50.047Z,100011.09
2023-01-29T17:46:23.119Z,100004.38
2023-01-29T17:48:50.370Z,100007.22
2023-01-29T17:51:18.460Z,100008.78
2023-01-29T17:53:47.005Z,99994.94
2023-01-29T17:56:17.130Z,100012.59
2023-01-29T17:58:44.515Z,100000.94
2023-01-29T18:01:11.412Z,99992.22
2023-01-29T18:03:38.423Z,99998.56
2023-01-29T18:06:08.804Z,100009.59
2023-01-29T18:08:38.258Z,100001.75
2023-01-29T18:11:05.738Z,99996.00
2023-01-29T18:13:35.540Z,99997.41
2023-01-29T18:16:02.598Z,100002.81
2023-01-29T18:18:29.704Z,99995.63
2023-01-29T18:20:56.478Z,99995.41
2023-01-29T18:23:23.330Z,99995.63
2023-01-29T18:25:50.253Z,99996.88
2023-01-29T18:28:17.816Z,99999.91
2023-01-29T18:30:48.038Z,99987.63
2023-01-29T18:33:16.523Z,99989.72
2023-01-29T18:35:50.069Z,99998.22
2023-01-29T18:38:17.560Z,99986.47
2023-01-29T18:40:44.498Z,99989.03
2023-01-29T18:43:11.374Z,99992.75
2023-01-29T18:45:41.180Z,99998.09
2023-01-29T18:48:08.237Z,99997.25
2023-01-29T18:50:36.359Z,99997.41
2023-01-29T18:53:08.945Z,100003.94
2023-01-29T18:55:36.241Z,100007.47
2023-01-29T18:58:28.983Z,100004.66
2023-01-29T19:00:52.436Z,99996.44
2023-01-29T19:03:23.089Z,100007.94
2023-01-29T19:05:52.098Z,100001.69
2023-01-29T19:08:19.164Z,100000.16
2023-01-29T19:10:46.233Z,100001.97
2023-01-29T19:13:13.473Z,100012.25
2023-01-29T19:15:43.278Z,100022.16
2023-01-29T19:18:12.557Z,100010.75
2023-01-29T19:20:45.232Z,100011.28
2023-01-29T19:23:14.062Z,100007.38
2023-01-29T19:25:41.044Z,100007.47
2023-01-29T19:28:08.311Z,100010.16
2023-01-29T19:30:36.592Z,100009.88
2023-01-29T19:33:04.830Z,100010.38
2023-01-29T19:35:33.154Z,100008.00
2023-01-29T19:38:01.438Z,99996.63
2023-01-29T19:40:28.500Z,100009.41
2023-01-29T19:42:56.484Z,100014.88
2023-01-29T19:45:49.441Z,100003.13
2023-01-29T19:48:17.023Z,100008.63
2023-01-29T19:50:43.922Z,100005.63
2023-01-29T19:53:10.831Z,100010.50
2023-01-29T19:55:37.960Z,99999.97
2023-01-29T19:58:05.087Z,100006.25
2023-01-29T20:00:32.192Z,100005.72
2023-01-29T20:02:59.004Z,99992.47
2023-01-29T20:05:27.465Z,100006.00
2023-01-29T20:07:54.314Z,100009.06
2023-01-29T20:10:21.542Z,100010.22
2023-01-29T20:12:48.557Z,100010.50
2023-01-29T20:15:15.611Z,100015.72
2023-01-29T20:17:42.606Z,100015.88
2023-01-29T20:20:10.279Z,100013.22
2023-01-29T20:22:38.069Z,100022.22
2023-01-29T20:25:05.340Z,100017.38
2023-01-29T20:27:32.172Z,100016.13
2023-01-29T20:29:59.839Z,100014.19
2023-01-29T20:32:26.856Z,100010.50
2023-01-29T20:34:53.712Z,100006.13
2023-01-29T20:37:20.878Z,100016.03
2023-01-29T20:39:47.956Z,100013.81
2023-01-29T20:42:15.340Z,99999.94
2023-01-29T20:44:42.242Z,100005.94
2023-01-29T20:47:09.408Z,100008.78
2023-01-29T20:49:36.358Z,100007.44
2023-01-29T20:52:03.272Z,100009.81
2023-01-29T20:54:33.304Z,100006.75
2023-01-29T20:57:00.537Z,100010.91
2023-01-29T20:59:29.510Z,100010.78
2023-01-29T21:01:56.585Z,100003.72
2023-01-29T21:04:23.685Z,100000.28
2023-01-29T21:06:52.476Z,99995.19
2023-01-29T21:09:20.836Z,99996.97
2023-01-29T21:11:48.017Z,100000.50
2023-01-29T21:14:17.330Z,100002.59
2023-01-29T21:16:44.403Z,100001.28
2023-01-29T21:19:14.529Z,99999.41
2023-01-29T21:21:41.807Z,99999.88
2023-01-29T21:24:10.596Z,99985.38
2023-01-29T21:26:38.687Z,99997.13
2023-01-29T21:29:05.581Z,99994.41
2023-01-29T21:31:33.716Z,100005.00
2023-01-29T21:34:00.527Z,99991.84
2023-01-29T21:36:27.444Z,99993.09
2023-01-29T21:38:54.304Z,99989.00
2023-01-29T21:41:41.134Z,100003.50
2023-01-29T21:44:08.222Z,99991.69
2023-01-29T21:46:35.367Z,99995.53
2023-01-29T21:49:06.607Z,99989.00
2023-01-29T21:51:34.573Z,99999.25
2023-01-29T21:54:03.583Z,99986.44
2023-01-29T21:56:30.785Z,99984.25
2023-01-29T21:59:01.031Z,99984.53
2023-01-29T22:01:37.471Z,99978.06
2023-01-29T22:04:07.850Z,99980.38
2023-01-29T22:06:34.842Z,99969.25
2023-01-29T22:09:01.736Z,99969.44
2023-01-29T22:11:28.995Z,99970.94
2023-01-29T22:13:56.154Z,99962.63
2023-01-29T22:16:23.104Z,99966.34
2023-01-29T22:18:50.464Z,99964.84
2023-01-29T22:21:17.416Z,99961.75
2023-01-29T22:23:48.661Z,99966.63
2023-01-29T22:26:16.221Z,99962.63
2023-01-29T22:28:43.247Z,99953.00
2023-01-29T22:31:10.589Z,99960.63
2023-01-29T22:33:37.810Z,99947.88
2023-01-29T22:36:05.014Z,99959.88
2023-01-29T22:38:32.103Z,99957.25
2023-01-29T22:41:00.694Z,99953.38
2023-01-29T22:43:27.714Z,99953.91
2023-01-29T22:45:55.236Z,99943.66
2023-01-29T22:48:23.434Z,99940.75
2023-01-29T22:51:09.814Z,99934.03
2023-01-29T22:53:48.633Z,99939.41
2023-01-29T22:56:16.466Z,99942.25
2023-01-29T22:58:43.325Z,99944.34
2023-01-29T23:01:10.909Z,99933.78
2023-01-29T23:03:37.828Z,99932.97
2023-01-29T23:06:04.800Z,99923.81
2023-01-29T23:08:34.231Z,99932.91
2023-01-29T23:11:15.119Z,99929.53
2023-01-29T23:13:46.651Z,99930.59
2023-01-29T23:16:14.854Z,99919.47
2023-01-29T23:18:42.149Z,99933.34
2023-01-29T23:21:09.820Z,99932.97
2023-01-29T23:23:37.996Z,99921.06
2023-01-29T23:26:25.443Z,99923.97
2023-01-29T23:28:52.726Z,99915.22
2023-01-29T23:31:19.633Z,99921.69
2023-01-29T23:33:46.664Z,99912.75
2023-01-29T23:36:13.558Z,99911.53
2023-01-29T23:38:40.411Z,99908.16
2023-01-29T23:41:07.566Z,99906.69
2023-01-29T23:43:35.001Z,99908.16
2023-01-29T23:46:04.271Z,99908.44
2023-01-29T23:48:31.191Z,99903.06
2023-01-29T23:50:58.182Z,99904.81
2023-01-29T23:53:25.076Z,99906.84
2023-01-29T23:56:03.944Z,99912.88
2023-01-29T23:58:31.807Z,99913.63
